createdAt,value
2023-03-17T00:01:53.943Z,-0.36
2023-03-17T00:04:23.539Z,-0.38
2023-03-17T00:06:50.408Z,-0.39
2023-03-17T00:09:19.232Z,-0.40
2023-03-17T00:11:46.760Z,-0.41
2023-03-17T00:14:14.025Z,-0.42
2023-03-17T00:16:43.192Z,-0.42
2023-03-17T00:19:19.678Z,-0.41
2023-03-17T00:21:47.359Z,-0.41
2023-03-17T00:24:15.233Z,-0.43
2023-03-17T00:26:42.727Z,-0.46
2023-03-17T00:29:09.861Z,-0.49
2023-03-17T00:31:37.395Z,-0.54
2023-03-17T00:34:04.202Z,-0.55
2023-03-17T00:36:33.613Z,-0.57
2023-03-17T00:39:03.406Z,-0.59
2023-03-17T00:41:30.112Z,-0.63
2023-03-17T00:43:57.025Z,-0.67
2023-03-17T00:46:28.350Z,-0.70
2023-03-17T00:48:57.353Z,-0.70
2023-03-17T00:51:24.169Z,-0.72
2023-03-17T00:53:51.129Z,-0.73
2023-03-17T00:56:20.527Z,-0.74
2023-03-17T00:58:48.069Z,-0.74
2023-03-17T01:01:15.616Z,-0.76
2023-03-17T01:03:42.381Z,-0.80
2023-03-17T01:06:12.402Z,-0.83
2023-03-17T01:08:40.456Z,-0.85
2023-03-17T01:11:15.579Z,-0.85
2023-03-17T01:13:42.244Z,-0.86
2023-03-17T01:16:10.329Z,-0.87
2023-03-17T01:18:37.685Z,-0.87
2023-03-17T01:21:04.897Z,-0.87
2023-03-17T01:23:32.018Z,-0.88
2023-03-17T01:25:58.788Z,-0.88
2023-03-17T01:28:25.534Z,-0.90
2023-03-17T01:30:52.101Z,-0.93
2023-03-17T01:33:19.054Z,-0.96
2023-03-17T01:35:45.802Z,-0.98
2023-03-17T01:38:14.384Z,-1.01
2023-03-17T01:40:49.590Z,-1.04
2023-03-17T01:43:22.996Z,-1.06
2023-03-17T01:46:16.090Z,-1.08
2023-03-17T01:49:00.133Z,-1.09
2023-03-17T01:51:42.361Z,-1.10
2023-03-17T01:54:14.609Z,-1.12
2023-03-17T01:56:44.688Z,-1.14
2023-03-17T01:59:17.101Z,-1.16
2023-03-17T02:01:48.067Z,-1.18
2023-03-17T02:04:16.339Z,-1.21
2023-03-17T02:06:56.774Z,-1.24
2023-03-17T02:09:25.029Z,-1.25
2023-03-17T02:11:52.846Z,-1.27
2023-03-17T02:14:19.808Z,-1.30
2023-03-17T02:16:47.079Z,-1.33
2023-03-17T02:19:16.246Z,-1.38
2023-03-17T02:21:48.854Z,-1.41
2023-03-17T02:24:24.168Z,-1.44
2023-03-17T02:26:54.015Z,-1.47
2023-03-17T02:29:22.520Z,-1.51
2023-03-17T02:31:49.896Z,-1.55
2023-03-17T02:34:17.139Z,-1.56
2023-03-17T02:36:44.059Z,-1.57
2023-03-17T02:39:10.679Z,-1.59
2023-03-17T02:41:37.500Z,-1.60
2023-03-17T02:44:04.361Z,-1.61
2023-03-17T02:46:31.372Z,-1.60
2023-03-17T02:49:00.294Z,-1.62
2023-03-17T02:51:27.607Z,-1.63
2023-03-17T02:53:54.259Z,-1.64
2023-03-17T02:56:21.227Z,-1.65
2023-03-17T02:58:47.943Z,-1.65
2023-03-17T03:01:15.059Z,-1.67
2023-03-17T03:03:41.978Z,-1.70
2023-03-17T03:06:08.865Z,-1.71
2023-03-17T03:08:35.846Z,-1.71
2023-03-17T03:11:03.549Z,-1.72
2023-03-17T03:13:30.938Z,-1.72
2023-03-17T03:15:57.684Z,-1.74
2023-03-17T03:18:24.421Z,-1.75
2023-03-17T03:20:51.072Z,-1.76
2023-03-17T03:23:18.096Z,-1.79
2023-03-17T03:25:45.670Z,-1.81
2023-03-17T03:28:12.300Z,-1.93
2023-03-17T03:30:39.292Z,-1.88
2023-03-17T03:33:06.273Z,-1.90
2023-03-17T03:35:33.868Z,-1.91
2023-03-17T03:38:00.707Z,-1.93
2023-03-17T03:40:28.161Z,-1.94
2023-03-17T03:42:55.532Z,-1.95
2023-03-17T03:45:22.132Z,-1.95
2023-03-17T03:47:48.867Z,-1.95
2023-03-17T03:50:16.196Z,-2.04
2023-03-17T03:52:42.788Z,-1.96
2023-03-17T03:55:09.756Z,-1.97
2023-03-17T03:57:36.536Z,-1.96
2023-03-17T04:00:04.594Z,-1.97
2023-03-17T04:02:39.426Z,-1.99
2023-03-17T04:05:07.110Z,-2.00
2023-03-17T04:07:33.829Z,-2.03
2023-03-17T04:10:01.157Z,-2.09
2023-03-17T04:12:27.647Z,-2.14
2023-03-17T04:14:54.317Z,-2.20
2023-03-17T04:17:21.077Z,-2.24
2023-03-17T04:19:47.584Z,-2.26
2023-03-17T04:22:14.178Z,-2.25
2023-03-17T04:24:41.400Z,-2.31
2023-03-17T04:27:08.647Z,-2.20
2023-03-17T04:29:35.530Z,-2.19
2023-03-17T04:32:03.243Z,-2.17
2023-03-17T04:34:29.786Z,-2.16
2023-03-17T04:36:57.058Z,-2.15
2023-03-17T04:39:23.920Z,-2.14
2023-03-17T04:41:50.670Z,-2.13
2023-03-17T04:44:17.274Z,-2.12
2023-03-17T04:46:44.328Z,-2.15
2023-03-17T04:49:11.479Z,-2.20
2023-03-17T04:51:38.017Z,-2.23
2023-03-17T04:54:05.587Z,-2.27
2023-03-17T04:56:32.417Z,-2.30
2023-03-17T04:58:59.076Z,-2.33
2023-03-17T05:01:26.081Z,-2.34
2023-03-17T05:03:52.876Z,-2.33
2023-03-17T05:06:19.354Z,-2.32
2023-03-17T05:08:46.212Z,-2.29
2023-03-17T05:11:13.797Z,-2.26
2023-03-17T05:13:40.418Z,-2.22
2023-03-17T05:16:08.684Z,-2.18
2023-03-17T05:18:36.512Z,-2.15
2023-03-17T05:21:04.840Z,-2.13
2023-03-17T05:23:31.932Z,-2.09
2023-03-17T05:25:58.755Z,-2.05
2023-03-17T05:28:26.106Z,-2.01
2023-03-17T05:30:54.696Z,-2.00
2023-03-17T05:33:21.357Z,-1.98
2023-03-17T05:35:47.931Z,-1.95
2023-03-17T05:38:15.549Z,-1.93
2023-03-17T05:40:42.822Z,-1.90
2023-03-17T05:43:09.867Z,-1.87
2023-03-17T05:45:36.676Z,-1.81
2023-03-17T05:48:04.124Z,-1.73
2023-03-17T05:50:30.924Z,-1.66
2023-03-17T05:52:57.754Z,-1.59
2023-03-17T05:55:24.407Z,-1.51
2023-03-17T05:57:51.000Z,-1.42
2023-03-17T06:00:18.356Z,-1.31
2023-03-17T06:02:45.363Z,-1.20
2023-03-17T06:05:12.752Z,-1.06
2023-03-17T06:07:51.615Z,-0.93
2023-03-17T06:10:21.808Z,-0.80
2023-03-17T06:12:48.538Z,-0.68
2023-03-17T06:15:16.377Z,-0.57
2023-03-17T06:17:43.037Z,-0.46
2023-03-17T06:20:11.187Z,-0.36
2023-03-17T06:22:39.750Z,-0.26
2023-03-17T06:25:11.754Z,-0.15
2023-03-17T06:27:38.543Z,-0.05
2023-03-17T06:30:07.631Z,0.06
2023-03-17T06:32:35.388Z,0.17
2023-03-17T06:35:04.735Z,0.28
2023-03-17T06:37:31.305Z,0.41
2023-03-17T06:40:00.285Z,0.55
2023-03-17T06:42:27.510Z,0.60
2023-03-17T06:44:54.443Z,0.77
2023-03-17T06:47:22.150Z,0.86
2023-03-17T06:49:49.606Z,0.96
2023-03-17T06:52:16.360Z,1.11
2023-03-17T06:54:44.092Z,1.27
2023-03-17T06:57:11.571Z,1.41
2023-03-17T06:59:38.459Z,1.56
2023-03-17T07:02:05.713Z,1.73
2023-03-17T07:04:32.337Z,1.91
2023-03-17T07:06:58.911Z,2.08
2023-03-17T07:09:25.844Z,2.23
2023-03-17T07:11:52.993Z,2.37
2023-03-17T07:14:19.642Z,2.53
2023-03-17T07:16:47.853Z,2.70
2023-03-17T07:19:14.991Z,2.88
2023-03-17T07:21:41.477Z,3.04
2023-03-17T07:24:09.390Z,3.19
2023-03-17T07:26:36.609Z,3.36
2023-03-17T07:29:03.273Z,3.50
2023-03-17T07:31:30.252Z,3.64
2023-03-17T07:33:57.407Z,3.78
2023-03-17T07:36:24.367Z,3.91
2023-03-17T07:38:51.394Z,4.05
2023-03-17T07:41:18.015Z,4.20
2023-03-17T07:43:44.778Z,4.32
2023-03-17T07:46:13.381Z,4.45
2023-03-17T07:48:42.720Z,4.58
2023-03-17T07:51:15.139Z,4.71
2023-03-17T07:53:42.489Z,4.81
2023-03-17T07:56:09.095Z,4.91
2023-03-17T07:58:36.657Z,5.00
2023-03-17T08:01:04.432Z,5.11
2023-03-17T08:03:31.197Z,5.22
2023-03-17T08:05:59.010Z,5.34
2023-03-17T08:08:27.035Z,5.46
2023-03-17T08:11:00.570Z,5.55
2023-03-17T08:13:27.231Z,5.64
2023-03-17T08:15:53.708Z,5.73
2023-03-17T08:18:20.388Z,5.82
2023-03-17T08:20:47.196Z,5.94
2023-03-17T08:23:13.706Z,6.08
2023-03-17T08:25:40.337Z,6.21
2023-03-17T08:28:07.378Z,6.36
2023-03-17T08:30:34.233Z,6.44
2023-03-17T08:33:01.205Z,6.52
2023-03-17T08:35:28.217Z,6.59
2023-03-17T08:37:56.246Z,6.69
2023-03-17T08:40:22.992Z,6.80
2023-03-17T08:42:50.035Z,6.86
2023-03-17T08:45:18.834Z,6.92
2023-03-17T08:47:47.198Z,6.97
2023-03-17T08:50:21.254Z,6.99
2023-03-17T08:52:48.817Z,6.97
2023-03-17T08:55:16.189Z,6.94
2023-03-17T08:57:44.045Z,6.94
2023-03-17T09:00:19.759Z,6.99
2023-03-17T09:02:47.236Z,7.08
2023-03-17T09:05:16.425Z,7.16
2023-03-17T09:07:43.371Z,7.27
2023-03-17T09:10:11.863Z,7.36
2023-03-17T09:12:38.830Z,7.45
2023-03-17T09:15:07.167Z,7.52
2023-03-17T09:17:34.113Z,7.53
2023-03-17T09:20:00.588Z,7.56
2023-03-17T09:22:27.236Z,7.61
2023-03-17T09:24:53.944Z,7.68
2023-03-17T09:27:20.704Z,7.78
2023-03-17T09:29:47.373Z,7.87
2023-03-17T09:32:15.190Z,7.94
2023-03-17T09:34:42.407Z,8.01
2023-03-17T09:37:09.238Z,8.06
2023-03-17T09:39:36.031Z,8.10
2023-03-17T09:42:33.920Z,8.11
2023-03-17T09:45:17.233Z,8.16
2023-03-17T09:47:50.312Z,8.23
2023-03-17T09:50:25.441Z,8.31
2023-03-17T09:52:54.899Z,8.41
2023-03-17T09:55:30.796Z,8.49
2023-03-17T09:58:00.182Z,8.54
2023-03-17T10:00:30.495Z,8.61
2023-03-17T10:02:58.082Z,8.70
2023-03-17T10:05:30.051Z,8.77
2023-03-17T10:08:30.751Z,8.83
2023-03-17T10:11:14.422Z,8.83
2023-03-17T10:13:44.272Z,8.80
2023-03-17T10:16:17.099Z,8.76
2023-03-17T10:18:52.485Z,8.69
2023-03-17T10:21:25.414Z,8.65
2023-03-17T10:23:53.667Z,8.61
2023-03-17T10:26:34.172Z,8.68
2023-03-17T10:29:03.766Z,8.72
2023-03-17T10:31:34.000Z,8.73
2023-03-17T10:34:12.781Z,8.71
2023-03-17T10:36:50.776Z,8.71
2023-03-17T10:39:19.998Z,8.71
2023-03-17T10:42:11.456Z,8.73
2023-03-17T10:44:50.233Z,8.75
2023-03-17T10:47:23.500Z,8.78
2023-03-17T10:49:52.073Z,8.79
2023-03-17T10:52:22.996Z,8.80
2023-03-17T10:54:52.880Z,8.79
2023-03-17T10:57:20.749Z,8.73
2023-03-17T10:59:53.149Z,8.65
2023-03-17T11:02:35.497Z,8.61
2023-03-17T11:05:08.929Z,8.58
2023-03-17T11:07:38.983Z,8.56
2023-03-17T11:10:22.607Z,8.55
2023-03-17T11:12:55.473Z,8.58
2023-03-17T11:15:22.410Z,8.59
2023-03-17T11:18:00.390Z,8.59
2023-03-17T11:20:27.127Z,8.57
2023-03-17T11:23:06.762Z,8.57
2023-03-17T11:25:40.591Z,8.58
2023-03-17T11:28:24.535Z,8.61
2023-03-17T11:31:12.294Z,8.67
2023-03-17T11:33:46.603Z,8.70
2023-03-17T11:36:40.954Z,8.70
2023-03-17T11:39:22.438Z,8.70
2023-03-17T11:42:16.567Z,8.71
2023-03-17T11:45:25.037Z,8.73
2023-03-17T11:48:16.711Z,8.75
2023-03-17T11:50:51.843Z,8.78
2023-03-17T11:53:37.837Z,8.77
2023-03-17T11:56:16.252Z,8.75
2023-03-17T11:58:46.425Z,8.77
2023-03-17T12:01:18.929Z,8.79
2023-03-17T12:03:58.249Z,8.81
2023-03-17T12:06:31.389Z,8.81
2023-03-17T12:09:02.643Z,8.81
2023-03-17T12:11:34.599Z,8.83
2023-03-17T12:14:07.053Z,8.86
2023-03-17T12:16:45.772Z,8.88
2023-03-17T12:19:24.659Z,8.89
2023-03-17T12:22:03.386Z,8.89
2023-03-17T12:24:34.135Z,8.89
2023-03-17T12:27:12.294Z,8.91
2023-03-17T12:29:43.093Z,8.91
2023-03-17T12:32:21.291Z,8.89
2023-03-17T12:34:57.166Z,8.84
2023-03-17T12:37:27.144Z,8.81
2023-03-17T12:40:05.916Z,8.83
2023-03-17T12:42:37.903Z,8.83
2023-03-17T12:45:28.953Z,8.84
2023-03-17T12:48:33.564Z,8.86
2023-03-17T12:51:12.013Z,8.86
2023-03-17T12:53:41.990Z,8.83
2023-03-17T12:56:20.870Z,8.83
2023-03-17T12:58:54.153Z,8.82
2023-03-17T13:01:31.808Z,8.82
2023-03-17T13:04:10.881Z,8.84
2023-03-17T13:06:48.499Z,8.88
2023-03-17T13:09:35.476Z,8.91
2023-03-17T13:12:04.598Z,8.96
2023-03-17T13:14:51.173Z,9.00
2023-03-17T13:17:23.223Z,9.02
2023-03-17T13:19:59.088Z,9.04
2023-03-17T13:22:38.530Z,9.03
2023-03-17T13:25:33.045Z,9.06
2023-03-17T13:28:12.207Z,9.09
2023-03-17T13:30:38.927Z,9.11
2023-03-17T13:33:11.635Z,9.13
2023-03-17T13:36:07.779Z,9.14
2023-03-17T13:38:34.770Z,9.15
2023-03-17T13:41:18.612Z,9.15
2023-03-17T13:44:03.745Z,9.15
2023-03-17T13:46:40.717Z,9.13
2023-03-17T13:49:20.622Z,9.13
2023-03-17T13:52:01.106Z,9.15
2023-03-17T13:54:28.159Z,9.18
2023-03-17T13:56:56.154Z,9.12
2023-03-17T13:59:47.133Z,9.20
2023-03-17T14:02:18.802Z,9.18
2023-03-17T14:04:58.317Z,9.17
2023-03-17T14:07:48.745Z,9.15
2023-03-17T14:10:22.781Z,9.12
2023-03-17T14:13:17.255Z,9.08
2023-03-17T14:15:50.167Z,9.04
2023-03-17T14:18:29.963Z,9.02
2023-03-17T14:20:59.060Z,9.01
2023-03-17T14:23:26.537Z,9.00
2023-03-17T14:25:58.879Z,9.01
2023-03-17T14:28:28.332Z,9.01
2023-03-17T14:31:02.361Z,9.01
2023-03-17T14:33:37.407Z,8.99
2023-03-17T14:36:14.184Z,8.96
2023-03-17T14:38:49.256Z,8.94
2023-03-17T14:41:22.539Z,8.94
2023-03-17T14:43:51.728Z,8.96
2023-03-17T14:46:39.641Z,9.02
2023-03-17T14:49:17.718Z,9.09
2023-03-17T14:51:48.118Z,9.16
2023-03-17T14:54:39.494Z,9.22
2023-03-17T14:57:08.318Z,9.27
2023-03-17T14:59:39.258Z,9.30
2023-03-17T15:02:32.459Z,9.30
2023-03-17T15:05:21.191Z,9.28
2023-03-17T15:07:47.944Z,9.29
2023-03-17T15:10:20.674Z,9.29
2023-03-17T15:12:47.826Z,9.27
2023-03-17T15:15:28.160Z,9.27
2023-03-17T15:18:02.639Z,9.28
2023-03-17T15:20:32.647Z,9.31
2023-03-17T15:23:04.473Z,9.31
2023-03-17T15:25:31.062Z,9.29
2023-03-17T15:27:58.162Z,9.22
2023-03-17T15:30:27.463Z,9.25
2023-03-17T15:33:01.206Z,9.23
2023-03-17T15:35:28.275Z,9.18
2023-03-17T15:37:55.351Z,9.15
2023-03-17T15:40:22.048Z,9.14
2023-03-17T15:42:48.678Z,9.10
2023-03-17T15:45:16.942Z,9.04
2023-03-17T15:47:46.772Z,8.97
2023-03-17T15:50:23.296Z,8.92
2023-03-17T15:52:55.352Z,8.88
2023-03-17T15:55:28.866Z,8.84
2023-03-17T15:57:57.496Z,8.79
2023-03-17T16:00:28.335Z,8.74
2023-03-17T16:02:58.266Z,8.67
2023-03-17T16:05:30.891Z,8.61
2023-03-17T16:07:57.608Z,8.56
2023-03-17T16:10:30.133Z,8.51
2023-03-17T16:12:57.899Z,8.47
2023-03-17T16:15:30.828Z,8.42
2023-03-17T16:18:00.125Z,8.37
2023-03-17T16:20:33.416Z,8.32
2023-03-17T16:23:19.071Z,8.29
2023-03-17T16:25:46.216Z,8.23
2023-03-17T16:28:17.385Z,8.17
2023-03-17T16:30:46.047Z,8.12
2023-03-17T16:33:19.271Z,8.07
2023-03-17T16:35:48.272Z,7.95
2023-03-17T16:38:17.358Z,7.99
2023-03-17T16:40:46.666Z,7.94
2023-03-17T16:43:37.136Z,7.88
2023-03-17T16:46:05.899Z,7.82
2023-03-17T16:48:33.892Z,7.69
2023-03-17T16:51:00.611Z,7.72
2023-03-17T16:53:27.231Z,7.68
2023-03-17T16:55:55.042Z,7.65
2023-03-17T16:58:41.126Z,7.60
2023-03-17T17:01:19.891Z,7.56
2023-03-17T17:03:47.452Z,7.52
2023-03-17T17:06:14.823Z,7.47
2023-03-17T17:08:43.346Z,7.44
2023-03-17T17:11:12.522Z,7.39
2023-03-17T17:13:41.014Z,7.35
2023-03-17T17:16:18.676Z,7.29
2023-03-17T17:18:46.718Z,7.23
2023-03-17T17:21:14.933Z,7.10
2023-03-17T17:23:42.061Z,7.14
2023-03-17T17:26:09.251Z,7.09
2023-03-17T17:28:38.705Z,7.06
2023-03-17T17:31:07.050Z,7.01
2023-03-17T17:33:35.187Z,6.96
2023-03-17T17:36:07.454Z,6.91
2023-03-17T17:38:34.471Z,6.86
2023-03-17T17:41:02.723Z,6.82
2023-03-17T17:43:29.430Z,6.79
2023-03-17T17:45:56.305Z,6.73
2023-03-17T17:48:25.456Z,6.69
2023-03-17T17:50:53.613Z,6.65
2023-03-17T17:53:20.622Z,6.61
2023-03-17T17:55:48.421Z,6.55
2023-03-17T17:58:21.746Z,6.52
2023-03-17T18:00:49.466Z,6.49
2023-03-17T18:03:16.384Z,6.45
2023-03-17T18:05:43.889Z,6.43
2023-03-17T18:08:13.730Z,6.41
2023-03-17T18:10:40.958Z,6.37
2023-03-17T18:13:08.128Z,6.34
2023-03-17T18:15:35.598Z,6.32
2023-03-17T18:18:02.363Z,6.30
2023-03-17T18:20:30.013Z,6.25
2023-03-17T18:22:57.297Z,6.27
2023-03-17T18:25:27.285Z,6.24
2023-03-17T18:27:54.609Z,6.23
2023-03-17T18:30:25.062Z,6.20
2023-03-17T18:32:55.337Z,6.19
2023-03-17T18:35:26.561Z,6.17
2023-03-17T18:37:55.966Z,6.15
2023-03-17T18:40:23.315Z,6.12
2023-03-17T18:42:50.055Z,6.08
2023-03-17T18:45:17.018Z,6.06
2023-03-17T18:47:43.660Z,6.03
2023-03-17T18:50:13.338Z,6.00
2023-03-17T18:52:42.241Z,5.98
2023-03-17T18:55:10.773Z,5.95
2023-03-17T18:57:39.159Z,5.93
2023-03-17T19:00:11.135Z,5.90
2023-03-17T19:02:37.739Z,5.88
2023-03-17T19:05:06.091Z,5.86
2023-03-17T19:07:39.765Z,5.84
2023-03-17T19:10:10.040Z,5.81
2023-03-17T19:12:37.520Z,5.79
2023-03-17T19:15:05.906Z,5.76
2023-03-17T19:17:35.065Z,5.74
2023-03-17T19:20:02.139Z,5.72
2023-03-17T19:22:28.761Z,5.69
2023-03-17T19:24:55.490Z,5.66
2023-03-17T19:27:22.446Z,5.64
2023-03-17T19:29:49.107Z,5.62
2023-03-17T19:32:16.928Z,5.60
2023-03-17T19:34:43.761Z,5.57
2023-03-17T19:37:10.548Z,5.55
2023-03-17T19:39:37.288Z,5.54
2023-03-17T19:42:04.313Z,5.52
2023-03-17T19:44:31.300Z,5.49
2023-03-17T19:46:58.540Z,5.47
2023-03-17T19:49:25.500Z,5.45
2023-03-17T19:51:52.037Z,5.44
2023-03-17T19:54:23.331Z,5.41
2023-03-17T19:56:50.829Z,5.39
2023-03-17T19:59:19.089Z,5.38
2023-03-17T20:01:46.407Z,5.37
2023-03-17T20:04:17.019Z,5.35
2023-03-17T20:06:43.812Z,5.34
2023-03-17T20:09:11.230Z,5.33
2023-03-17T20:11:38.045Z,5.32
2023-03-17T20:14:05.595Z,5.32
2023-03-17T20:16:35.566Z,5.31
2023-03-17T20:19:05.158Z,5.30
2023-03-17T20:21:31.761Z,5.30
2023-03-17T20:23:58.865Z,5.30
2023-03-17T20:26:26.091Z,5.31
2023-03-17T20:29:00.014Z,5.33
2023-03-17T20:31:28.136Z,5.33
2023-03-17T20:33:55.798Z,5.33
2023-03-17T20:36:23.411Z,5.26
2023-03-17T20:38:50.200Z,5.33
2023-03-17T20:41:18.540Z,5.33
2023-03-17T20:43:46.315Z,5.31
2023-03-17T20:46:20.443Z,5.32
2023-03-17T20:48:47.843Z,5.30
2023-03-17T20:51:17.798Z,5.29
2023-03-17T20:53:48.647Z,5.28
2023-03-17T20:56:18.181Z,5.26
2023-03-17T20:58:47.795Z,5.25
2023-03-17T21:01:19.815Z,5.24
2023-03-17T21:03:48.821Z,5.22
2023-03-17T21:06:15.912Z,5.21
2023-03-17T21:08:42.708Z,5.19
2023-03-17T21:11:15.381Z,5.16
2023-03-17T21:13:43.774Z,5.13
2023-03-17T21:16:23.096Z,5.11
2023-03-17T21:18:50.919Z,5.08
2023-03-17T21:21:18.402Z,5.06
2023-03-17T21:23:45.476Z,5.04
2023-03-17T21:26:14.164Z,5.02
2023-03-17T21:28:41.896Z,4.99
2023-03-17T21:31:10.441Z,4.97
2023-03-17T21:33:37.491Z,4.95
2023-03-17T21:36:05.195Z,4.92
2023-03-17T21:38:32.024Z,4.91
2023-03-17T21:41:17.978Z,4.89
2023-03-17T21:43:45.933Z,4.87
2023-03-17T21:46:13.707Z,4.86
2023-03-17T21:48:40.541Z,4.84
2023-03-17T21:51:10.695Z,4.82
2023-03-17T21:53:37.324Z,4.81
2023-03-17T21:56:04.409Z,4.80
2023-03-17T21:58:30.987Z,4.77
2023-03-17T22:00:59.872Z,4.77
2023-03-17T22:03:27.136Z,4.76
2023-03-17T22:05:54.073Z,4.74
2023-03-17T22:08:21.219Z,4.74
2023-03-17T22:10:48.426Z,4.73
2023-03-17T22:13:15.084Z,4.71
2023-03-17T22:15:42.172Z,4.67
2023-03-17T22:18:09.115Z,4.65
2023-03-17T22:20:35.849Z,4.63
2023-03-17T22:23:02.907Z,4.61
2023-03-17T22:25:29.644Z,4.60
2023-03-17T22:27:56.421Z,4.57
2023-03-17T22:30:23.073Z,4.55
2023-03-17T22:32:50.553Z,4.54
2023-03-17T22:35:18.978Z,4.51
2023-03-17T22:37:46.735Z,4.49
2023-03-17T22:40:14.319Z,4.39
2023-03-17T22:42:40.982Z,4.46
2023-03-17T22:45:13.038Z,4.44
2023-03-17T22:47:39.908Z,4.43
2023-03-17T22:50:07.310Z,4.41
2023-03-17T22:52:34.432Z,4.39
2023-03-17T22:55:01.157Z,4.37
2023-03-17T22:57:27.684Z,4.35
2023-03-17T22:59:56.449Z,4.34
2023-03-17T23:02:23.869Z,4.33
2023-03-17T23:04:50.588Z,4.32
2023-03-17T23:07:17.229Z,4.32
2023-03-17T23:09:44.764Z,4.31
2023-03-17T23:12:11.958Z,4.30
2023-03-17T23:14:38.795Z,4.28
2023-03-17T23:17:05.723Z,4.27
2023-03-17T23:19:32.518Z,4.26
2023-03-17T23:21:59.380Z,4.25
2023-03-17T23:24:25.939Z,4.24
2023-03-17T23:26:52.379Z,4.23
2023-03-17T23:29:19.107Z,4.22
2023-03-17T23:31:46.197Z,4.21
2023-03-17T23:34:13.041Z,4.21
2023-03-17T23:36:40.110Z,4.18
2023-03-17T23:39:07.890Z,4.17
2023-03-17T23:41:34.921Z,4.16
2023-03-17T23:44:01.589Z,4.15
2023-03-17T23:46:28.511Z,4.14
2023-03-17T23:48:55.659Z,4.13
2023-03-17T23:51:23.317Z,4.12
2023-03-17T23:53:51.570Z,4.11
2023-03-17T23:56:19.449Z,4.11
2023-03-17T23:58:48.284Z,4.10
